sensor_id;sensor_type;location;lat;lon;timestamp;P1;durP1;ratioP1;P2;durP2;ratioP2
10082;SDS011;5080;48.528;8.078;2023-06-10T00:00:29;1.10;;;1.10;;
10082;SDS011;5080;48.528;8.078;2023-06-10T00:02:56;1.17;;;1.17;;
10082;SDS011;5080;48.528;8.078;2023-06-10T00:05:24;1.00;;;1.00;;
10082;SDS011;5080;48.528;8.078;2023-06-10T00:07:55;1.20;;;1.10;;
10082;SDS011;5080;48.528;8.078;2023-06-10T00:10:22;1.30;;;1.30;;
10082;SDS011;5080;48.528;8.078;2023-06-10T00:12:49;1.10;;;1.10;;
10082;SDS011;5080;48.528;8.078;2023-06-10T00:15:16;1.30;;;1.30;;
10082;SDS011;5080;48.528;8.078;2023-06-10T00:17:45;1.10;;;1.10;;
10082;SDS011;5080;48.528;8.078;2023-06-10T00:20:12;1.30;;;1.30;;
10082;SDS011;5080;48.528;8.078;2023-06-10T00:22:38;1.40;;;1.30;;
10082;SDS011;5080;48.528;8.078;2023-06-10T00:25:06;1.10;;;1.10;;
10082;SDS011;5080;48.528;8.078;2023-06-10T00:27:35;1.27;;;1.20;;
10082;SDS011;5080;48.528;8.078;2023-06-10T00:30:02;1.40;;;1.30;;
10082;SDS011;5080;48.528;8.078;2023-06-10T00:32:31;1.20;;;1.20;;
10082;SDS011;5080;48.528;8.078;2023-06-10T00:35:00;1.10;;;1.10;;
10082;SDS011;5080;48.528;8.078;2023-06-10T00:37:26;1.20;;;1.20;;
10082;SDS011;5080;48.528;8.078;2023-06-10T00:39:53;1.50;;;1.40;;
10082;SDS011;5080;48.528;8.078;2023-06-10T00:42:20;1.13;;;1.10;;
10082;SDS011;5080;48.528;8.078;2023-06-10T00:44:49;1.20;;;1.20;;
10082;SDS011;5080;48.528;8.078;2023-06-10T00:47:16;1.02;;;1.02;;
10082;SDS011;5080;48.528;8.078;2023-06-10T00:49:43;1.15;;;1.15;;
10082;SDS011;5080;48.528;8.078;2023-06-10T00:52:12;1.55;;;1.30;;
10082;SDS011;5080;48.528;8.078;2023-06-10T00:54:40;1.23;;;1.23;;
10082;SDS011;5080;48.528;8.078;2023-06-10T00:57:08;1.10;;;1.10;;
10082;SDS011;5080;48.528;8.078;2023-06-10T00:59:35;1.30;;;1.30;;
10082;SDS011;5080;48.528;8.078;2023-06-10T01:02:03;1.25;;;1.25;;
10082;SDS011;5080;48.528;8.078;2023-06-10T01:04:30;1.38;;;1.30;;
10082;SDS011;5080;48.528;8.078;2023-06-10T01:06:58;1.00;;;1.00;;
10082;SDS011;5080;48.528;8.078;2023-06-10T01:09:37;1.10;;;1.10;;
10082;SDS011;5080;48.528;8.078;2023-06-10T01:12:10;1.10;;;1.10;;
10082;SDS011;5080;48.528;8.078;2023-06-10T01:14:50;1.20;;;1.20;;
10082;SDS011;5080;48.528;8.078;2023-06-10T01:17:17;1.10;;;1.10;;
10082;SDS011;5080;48.528;8.078;2023-06-10T01:19:44;1.35;;;1.30;;
10082;SDS011;5080;48.528;8.078;2023-06-10T01:22:22;1.20;;;1.20;;
10082;SDS011;5080;48.528;8.078;2023-06-10T01:24:50;1.20;;;1.20;;
10082;SDS011;5080;48.528;8.078;2023-06-10T01:27:19;1.10;;;1.10;;
10082;SDS011;5080;48.528;8.078;2023-06-10T01:29:50;1.40;;;1.30;;
10082;SDS011;5080;48.528;8.078;2023-06-10T01:32:23;1.42;;;1.35;;
10082;SDS011;5080;48.528;8.078;2023-06-10T01:34:55;1.30;;;1.17;;
10082;SDS011;5080;48.528;8.078;2023-06-10T01:37:24;1.38;;;1.27;;
10082;SDS011;5080;48.528;8.078;2023-06-10T01:39:54;1.30;;;1.30;;
10082;SDS011;5080;48.528;8.078;2023-06-10T01:42:23;1.10;;;1.10;;
10082;SDS011;5080;48.528;8.078;2023-06-10T01:44:50;1.20;;;1.20;;
10082;SDS011;5080;48.528;8.078;2023-06-10T01:47:17;1.10;;;1.10;;
10082;SDS011;5080;48.528;8.078;2023-06-10T01:49:44;1.40;;;1.30;;
10082;SDS011;5080;48.528;8.078;2023-06-10T01:52:11;1.20;;;1.20;;
10082;SDS011;5080;48.528;8.078;2023-06-10T01:54:40;1.30;;;1.30;;
10082;SDS011;5080;48.528;8.078;2023-06-10T01:57:07;1.10;;;1.10;;
10082;SDS011;5080;48.528;8.078;2023-06-10T01:59:34;1.23;;;1.23;;
10082;SDS011;5080;48.528;8.078;2023-06-10T02:02:01;1.40;;;1.40;;
10082;SDS011;5080;48.528;8.078;2023-06-10T02:04:28;1.48;;;1.30;;
10082;SDS011;5080;48.528;8.078;2023-06-10T02:06:55;1.10;;;1.10;;
10082;SDS011;5080;48.528;8.078;2023-06-10T02:09:22;1.27;;;1.27;;
10082;SDS011;5080;48.528;8.078;2023-06-10T02:11:50;1.23;;;1.17;;
10082;SDS011;5080;48.528;8.078;2023-06-10T02:14:17;1.50;;;1.40;;
10082;SDS011;5080;48.528;8.078;2023-06-10T02:16:44;1.20;;;1.10;;
10082;SDS011;5080;48.528;8.078;2023-06-10T02:19:11;1.10;;;1.10;;
10082;SDS011;5080;48.528;8.078;2023-06-10T02:21:38;1.30;;;1.30;;
10082;SDS011;5080;48.528;8.078;2023-06-10T02:24:05;1.25;;;1.23;;
10082;SDS011;5080;48.528;8.078;2023-06-10T02:26:33;1.25;;;1.25;;
10082;SDS011;5080;48.528;8.078;2023-06-10T02:29:01;1.10;;;1.10;;
10082;SDS011;5080;48.528;8.078;2023-06-10T02:31:28;1.20;;;1.20;;
10082;SDS011;5080;48.528;8.078;2023-06-10T02:33:55;1.20;;;1.20;;
10082;SDS011;5080;48.528;8.078;2023-06-10T02:36:22;1.23;;;1.23;;
10082;SDS011;5080;48.528;8.078;2023-06-10T02:38:49;1.30;;;1.30;;
10082;SDS011;5080;48.528;8.078;2023-06-10T02:41:16;1.20;;;1.20;;
10082;SDS011;5080;48.528;8.078;2023-06-10T02:43:43;1.42;;;1.42;;
10082;SDS011;5080;48.528;8.078;2023-06-10T02:46:11;1.23;;;1.23;;
10082;SDS011;5080;48.528;8.078;2023-06-10T02:48:41;1.10;;;1.10;;
10082;SDS011;5080;48.528;8.078;2023-06-10T02:51:09;1.30;;;1.30;;
10082;SDS011;5080;48.528;8.078;2023-06-10T02:53:36;1.50;;;1.40;;
10082;SDS011;5080;48.528;8.078;2023-06-10T02:56:03;1.20;;;1.20;;
10082;SDS011;5080;48.528;8.078;2023-06-10T02:58:30;1.25;;;1.25;;
10082;SDS011;5080;48.528;8.078;2023-06-10T03:00:57;1.40;;;1.40;;
10082;SDS011;5080;48.528;8.078;2023-06-10T03:03:25;1.27;;;1.27;;
10082;SDS011;5080;48.528;8.078;2023-06-10T03:05:52;1.17;;;1.17;;
10082;SDS011;5080;48.528;8.078;2023-06-10T03:08:19;1.30;;;1.30;;
10082;SDS011;5080;48.528;8.078;2023-06-10T03:10:46;1.33;;;1.30;;
10082;SDS011;5080;48.528;8.078;2023-06-10T03:13:13;1.17;;;1.17;;
10082;SDS011;5080;48.528;8.078;2023-06-10T03:15:40;1.30;;;1.30;;
10082;SDS011;5080;48.528;8.078;2023-06-10T03:18:07;1.25;;;1.25;;
10082;SDS011;5080;48.528;8.078;2023-06-10T03:20:35;1.30;;;1.20;;
10082;SDS011;5080;48.528;8.078;2023-06-10T03:23:03;1.20;;;1.20;;
10082;SDS011;5080;48.528;8.078;2023-06-10T03:25:31;1.25;;;1.25;;
10082;SDS011;5080;48.528;8.078;2023-06-10T03:27:58;1.20;;;1.20;;
10082;SDS011;5080;48.528;8.078;2023-06-10T03:30:26;1.38;;;1.38;;
10082;SDS011;5080;48.528;8.078;2023-06-10T03:32:53;1.17;;;1.17;;
10082;SDS011;5080;48.528;8.078;2023-06-10T03:35:20;1.42;;;1.33;;
10082;SDS011;5080;48.528;8.078;2023-06-10T03:37:48;1.30;;;1.30;;
10082;SDS011;5080;48.528;8.078;2023-06-10T03:40:15;1.50;;;1.40;;
10082;SDS011;5080;48.528;8.078;2023-06-10T03:42:42;1.42;;;1.35;;
10082;SDS011;5080;48.528;8.078;2023-06-10T03:45:10;1.30;;;1.30;;
10082;SDS011;5080;48.528;8.078;2023-06-10T03:47:38;1.23;;;1.23;;
10082;SDS011;5080;48.528;8.078;2023-06-10T03:50:05;1.50;;;1.40;;
10082;SDS011;5080;48.528;8.078;2023-06-10T03:52:33;1.30;;;1.20;;
10082;SDS011;5080;48.528;8.078;2023-06-10T03:55:01;1.20;;;1.20;;
10082;SDS011;5080;48.528;8.078;2023-06-10T03:57:28;1.48;;;1.30;;
10082;SDS011;5080;48.528;8.078;2023-06-10T03:59:55;1.40;;;1.40;;
10082;SDS011;5080;48.528;8.078;2023-06-10T04:02:22;1.27;;;1.27;;
10082;SDS011;5080;48.528;8.078;2023-06-10T04:04:49;1.30;;;1.30;;
10082;SDS011;5080;48.528;8.078;2023-06-10T04:07:16;1.30;;;1.30;;
10082;SDS011;5080;48.528;8.078;2023-06-10T04:09:45;1.30;;;1.30;;
10082;SDS011;5080;48.528;8.078;2023-06-10T04:12:14;1.20;;;1.20;;
10082;SDS011;5080;48.528;8.078;2023-06-10T04:14:41;2.35;;;1.48;;
10082;SDS011;5080;48.528;8.078;2023-06-10T04:17:08;1.15;;;1.15;;
10082;SDS011;5080;48.528;8.078;2023-06-10T04:19:35;1.60;;;1.50;;
10082;SDS011;5080;48.528;8.078;2023-06-10T04:22:02;1.30;;;1.30;;
10082;SDS011;5080;48.528;8.078;2023-06-10T04:24:30;1.50;;;1.40;;
10082;SDS011;5080;48.528;8.078;2023-06-10T04:26:57;1.30;;;1.30;;
10082;SDS011;5080;48.528;8.078;2023-06-10T04:29:25;1.30;;;1.30;;
10082;SDS011;5080;48.528;8.078;2023-06-10T04:31:52;1.25;;;1.25;;
10082;SDS011;5080;48.528;8.078;2023-06-10T04:34:19;1.30;;;1.20;;
10082;SDS011;5080;48.528;8.078;2023-06-10T04:36:45;1.30;;;1.30;;
10082;SDS011;5080;48.528;8.078;2023-06-10T04:39:12;1.60;;;1.50;;
10082;SDS011;5080;48.528;8.078;2023-06-10T04:41:41;2.55;;;1.40;;
10082;SDS011;5080;48.528;8.078;2023-06-10T04:44:08;1.75;;;1.35;;
10082;SDS011;5080;48.528;8.078;2023-06-10T04:46:37;2.35;;;1.70;;
10082;SDS011;5080;48.528;8.078;2023-06-10T04:49:04;1.60;;;1.50;;
10082;SDS011;5080;48.528;8.078;2023-06-10T04:51:31;1.67;;;1.50;;
10082;SDS011;5080;48.528;8.078;2023-06-10T04:53:57;1.52;;;1.50;;
10082;SDS011;5080;48.528;8.078;2023-06-10T04:56:27;1.30;;;1.30;;
10082;SDS011;5080;48.528;8.078;2023-06-10T04:58:55;1.67;;;1.58;;
10082;SDS011;5080;48.528;8.078;2023-06-10T05:01:23;1.75;;;1.33;;
10082;SDS011;5080;48.528;8.078;2023-06-10T05:03:51;1.45;;;1.42;;
10082;SDS011;5080;48.528;8.078;2023-06-10T05:06:18;1.30;;;1.30;;
10082;SDS011;5080;48.528;8.078;2023-06-10T05:08:45;1.40;;;1.40;;
10082;SDS011;5080;48.528;8.078;2023-06-10T05:11:12;1.40;;;1.40;;
10082;SDS011;5080;48.528;8.078;2023-06-10T05:13:38;1.70;;;1.60;;
10082;SDS011;5080;48.528;8.078;2023-06-10T05:16:06;1.70;;;1.60;;
10082;SDS011;5080;48.528;8.078;2023-06-10T05:18:32;1.30;;;1.30;;
10082;SDS011;5080;48.528;8.078;2023-06-10T05:21:02;1.38;;;1.38;;
10082;SDS011;5080;48.528;8.078;2023-06-10T05:23:28;1.40;;;1.40;;
10082;SDS011;5080;48.528;8.078;2023-06-10T05:25:55;1.40;;;1.40;;
10082;SDS011;5080;48.528;8.078;2023-06-10T05:28:23;3.42;;;2.05;;
10082;SDS011;5080;48.528;8.078;2023-06-10T05:30:50;1.40;;;1.40;;
10082;SDS011;5080;48.528;8.078;2023-06-10T05:33:17;1.50;;;1.45;;
10082;SDS011;5080;48.528;8.078;2023-06-10T05:35:44;1.38;;;1.38;;
10082;SDS011;5080;48.528;8.078;2023-06-10T05:38:12;1.50;;;1.40;;
10082;SDS011;5080;48.528;8.078;2023-06-10T05:40:39;1.40;;;1.40;;
10082;SDS011;5080;48.528;8.078;2023-06-10T05:43:06;1.42;;;1.40;;
10082;SDS011;5080;48.528;8.078;2023-06-10T05:45:34;1.63;;;1.52;;
10082;SDS011;5080;48.528;8.078;2023-06-10T05:48:01;2.03;;;1.92;;
10082;SDS011;5080;48.528;8.078;2023-06-10T05:50:28;1.77;;;1.67;;
10082;SDS011;5080;48.528;8.078;2023-06-10T05:52:55;1.38;;;1.38;;
10082;SDS011;5080;48.528;8.078;2023-06-10T05:55:24;1.58;;;1.48;;
10082;SDS011;5080;48.528;8.078;2023-06-10T05:57:58;1.50;;;1.50;;
10082;SDS011;5080;48.528;8.078;2023-06-10T06:00:25;1.35;;;1.35;;
10082;SDS011;5080;48.528;8.078;2023-06-10T06:02:52;1.67;;;1.58;;
10082;SDS011;5080;48.528;8.078;2023-06-10T06:05:20;1.70;;;1.60;;
10082;SDS011;5080;48.528;8.078;2023-06-10T06:07:47;1.27;;;1.27;;
10082;SDS011;5080;48.528;8.078;2023-06-10T06:10:14;1.63;;;1.40;;
10082;SDS011;5080;48.528;8.078;2023-06-10T06:12:44;1.65;;;1.55;;
10082;SDS011;5080;48.528;8.078;2023-06-10T06:15:10;1.30;;;1.30;;
10082;SDS011;5080;48.528;8.078;2023-06-10T06:17:37;1.77;;;1.60;;
10082;SDS011;5080;48.528;8.078;2023-06-10T06:20:05;1.63;;;1.60;;
10082;SDS011;5080;48.528;8.078;2023-06-10T06:22:32;1.80;;;1.70;;
10082;SDS011;5080;48.528;8.078;2023-06-10T06:24:59;1.40;;;1.40;;
10082;SDS011;5080;48.528;8.078;2023-06-10T06:27:26;2.00;;;1.90;;
10082;SDS011;5080;48.528;8.078;2023-06-10T06:29:55;1.80;;;1.70;;
10082;SDS011;5080;48.528;8.078;2023-06-10T06:32:22;2.00;;;1.80;;
10082;SDS011;5080;48.528;8.078;2023-06-10T06:34:51;1.67;;;1.58;;
10082;SDS011;5080;48.528;8.078;2023-06-10T06:37:19;1.85;;;1.75;;
10082;SDS011;5080;48.528;8.078;2023-06-10T06:39:47;1.63;;;1.63;;
10082;SDS011;5080;48.528;8.078;2023-06-10T06:42:14;1.83;;;1.73;;
10082;SDS011;5080;48.528;8.078;2023-06-10T06:44:41;1.88;;;1.77;;
10082;SDS011;5080;48.528;8.078;2023-06-10T06:47:09;2.47;;;2.10;;
10082;SDS011;5080;48.528;8.078;2023-06-10T06:49:36;1.77;;;1.67;;
10082;SDS011;5080;48.528;8.078;2023-06-10T06:52:03;2.17;;;1.85;;
10082;SDS011;5080;48.528;8.078;2023-06-10T06:54:30;2.03;;;1.92;;
10082;SDS011;5080;48.528;8.078;2023-06-10T06:56:57;2.10;;;2.00;;
10082;SDS011;5080;48.528;8.078;2023-06-10T06:59:24;1.98;;;1.77;;
10082;SDS011;5080;48.528;8.078;2023-06-10T07:01:51;2.10;;;2.00;;
10082;SDS011;5080;48.528;8.078;2023-06-10T07:04:20;2.40;;;2.30;;
10082;SDS011;5080;48.528;8.078;2023-06-10T07:06:47;2.00;;;1.90;;
10082;SDS011;5080;48.528;8.078;2023-06-10T07:09:14;1.90;;;1.80;;
10082;SDS011;5080;48.528;8.078;2023-06-10T07:11:41;2.20;;;2.10;;
10082;SDS011;5080;48.528;8.078;2023-06-10T07:14:08;4.40;;;2.15;;
10082;SDS011;5080;48.528;8.078;2023-06-10T07:16:35;2.05;;;1.95;;
10082;SDS011;5080;48.528;8.078;2023-06-10T07:19:02;1.90;;;1.80;;
10082;SDS011;5080;48.528;8.078;2023-06-10T07:21:30;2.35;;;1.90;;
10082;SDS011;5080;48.528;8.078;2023-06-10T07:23:58;2.13;;;2.03;;
10082;SDS011;5080;48.528;8.078;2023-06-10T07:26:25;2.00;;;1.80;;
10082;SDS011;5080;48.528;8.078;2023-06-10T07:28:52;2.30;;;2.10;;
10082;SDS011;5080;48.528;8.078;2023-06-10T07:31:19;3.22;;;2.40;;
10082;SDS011;5080;48.528;8.078;2023-06-10T07:33:46;1.98;;;1.85;;
10082;SDS011;5080;48.528;8.078;2023-06-10T07:36:13;1.80;;;1.70;;
10082;SDS011;5080;48.528;8.078;2023-06-10T07:38:41;1.95;;;1.85;;
10082;SDS011;5080;48.528;8.078;2023-06-10T07:41:08;2.25;;;1.88;;
10082;SDS011;5080;48.528;8.078;2023-06-10T07:43:36;1.90;;;1.80;;
10082;SDS011;5080;48.528;8.078;2023-06-10T07:46:03;2.03;;;1.90;;
10082;SDS011;5080;48.528;8.078;2023-06-10T07:48:30;1.80;;;1.70;;
10082;SDS011;5080;48.528;8.078;2023-06-10T07:50:57;2.13;;;2.03;;
10082;SDS011;5080;48.528;8.078;2023-06-10T07:53:24;1.75;;;1.65;;
10082;SDS011;5080;48.528;8.078;2023-06-10T07:55:52;1.70;;;1.60;;
10082;SDS011;5080;48.528;8.078;2023-06-10T07:58:19;2.00;;;1.90;;
10082;SDS011;5080;48.528;8.078;2023-06-10T08:00:47;1.75;;;1.65;;
10082;SDS011;5080;48.528;8.078;2023-06-10T08:03:14;1.98;;;1.88;;
10082;SDS011;5080;48.528;8.078;2023-06-10T08:05:41;1.83;;;1.70;;
10082;SDS011;5080;48.528;8.078;2023-06-10T08:08:07;2.35;;;1.70;;
10082;SDS011;5080;48.528;8.078;2023-06-10T08:10:35;1.90;;;1.80;;
10082;SDS011;5080;48.528;8.078;2023-06-10T08:13:03;1.60;;;1.50;;
10082;SDS011;5080;48.528;8.078;2023-06-10T08:15:30;1.90;;;1.80;;
10082;SDS011;5080;48.528;8.078;2023-06-10T08:17:57;1.90;;;1.80;;
10082;SDS011;5080;48.528;8.078;2023-06-10T08:20:23;1.90;;;1.80;;
10082;SDS011;5080;48.528;8.078;2023-06-10T08:22:50;1.70;;;1.60;;
10082;SDS011;5080;48.528;8.078;2023-06-10T08:25:17;1.38;;;1.38;;
10082;SDS011;5080;48.528;8.078;2023-06-10T08:27:46;1.75;;;1.65;;
10082;SDS011;5080;48.528;8.078;2023-06-10T08:30:14;1.90;;;1.80;;
10082;SDS011;5080;48.528;8.078;2023-06-10T08:32:41;2.03;;;1.92;;
10082;SDS011;5080;48.528;8.078;2023-06-10T08:35:09;1.70;;;1.60;;
10082;SDS011;5080;48.528;8.078;2023-06-10T08:37:36;1.80;;;1.70;;
10082;SDS011;5080;48.528;8.078;2023-06-10T08:40:03;1.70;;;1.60;;
10082;SDS011;5080;48.528;8.078;2023-06-10T08:42:33;1.75;;;1.65;;
10082;SDS011;5080;48.528;8.078;2023-06-10T08:45:05;1.70;;;1.60;;
10082;SDS011;5080;48.528;8.078;2023-06-10T08:47:39;2.13;;;1.73;;
10082;SDS011;5080;48.528;8.078;2023-06-10T08:50:10;1.95;;;1.85;;
10082;SDS011;5080;48.528;8.078;2023-06-10T08:52:37;1.63;;;1.52;;
10082;SDS011;5080;48.528;8.078;2023-06-10T08:55:10;1.90;;;1.80;;
10082;SDS011;5080;48.528;8.078;2023-06-10T08:57:40;1.80;;;1.70;;
10082;SDS011;5080;48.528;8.078;2023-06-10T09:00:10;1.60;;;1.50;;
10082;SDS011;5080;48.528;8.078;2023-06-10T09:02:39;1.80;;;1.70;;
10082;SDS011;5080;48.528;8.078;2023-06-10T09:05:06;1.75;;;1.65;;
10082;SDS011;5080;48.528;8.078;2023-06-10T09:07:35;1.80;;;1.70;;
10082;SDS011;5080;48.528;8.078;2023-06-10T09:10:02;1.52;;;1.42;;
10082;SDS011;5080;48.528;8.078;2023-06-10T09:12:32;1.73;;;1.63;;
10082;SDS011;5080;48.528;8.078;2023-06-10T09:14:59;1.75;;;1.65;;
10082;SDS011;5080;48.528;8.078;2023-06-10T09:17:26;1.50;;;1.50;;
10082;SDS011;5080;48.528;8.078;2023-06-10T09:19:54;1.60;;;1.50;;
10082;SDS011;5080;48.528;8.078;2023-06-10T09:22:22;1.50;;;1.50;;
10082;SDS011;5080;48.528;8.078;2023-06-10T09:24:49;1.60;;;1.50;;
10082;SDS011;5080;48.528;8.078;2023-06-10T09:27:16;1.70;;;1.60;;
10082;SDS011;5080;48.528;8.078;2023-06-10T09:29:46;1.45;;;1.40;;
10082;SDS011;5080;48.528;8.078;2023-06-10T09:32:14;1.60;;;1.50;;
10082;SDS011;5080;48.528;8.078;2023-06-10T09:34:41;1.50;;;1.50;;
10082;SDS011;5080;48.528;8.078;2023-06-10T09:37:10;1.55;;;1.45;;
10082;SDS011;5080;48.528;8.078;2023-06-10T09:39:38;1.50;;;1.40;;
10082;SDS011;5080;48.528;8.078;2023-06-10T09:42:15;1.38;;;1.27;;
10082;SDS011;5080;48.528;8.078;2023-06-10T09:44:42;1.50;;;1.40;;
10082;SDS011;5080;48.528;8.078;2023-06-10T09:47:19;1.38;;;1.30;;
10082;SDS011;5080;48.528;8.078;2023-06-10T09:49:46;1.30;;;1.30;;
10082;SDS011;5080;48.528;8.078;2023-06-10T09:52:14;1.27;;;1.27;;
10082;SDS011;5080;48.528;8.078;2023-06-10T09:54:47;1.20;;;1.20;;
10082;SDS011;5080;48.528;8.078;2023-06-10T09:57:14;1.73;;;1.40;;
10082;SDS011;5080;48.528;8.078;2023-06-10T09:59:43;1.40;;;1.33;;
10082;SDS011;5080;48.528;8.078;2023-06-10T10:02:13;1.30;;;1.30;;
10082;SDS011;5080;48.528;8.078;2023-06-10T10:04:40;1.20;;;1.20;;
10082;SDS011;5080;48.528;8.078;2023-06-10T10:07:07;1.88;;;1.10;;
10082;SDS011;5080;48.528;8.078;2023-06-10T10:09:36;1.20;;;1.20;;
10082;SDS011;5080;48.528;8.078;2023-06-10T10:12:04;1.20;;;1.20;;
10082;SDS011;5080;48.528;8.078;2023-06-10T10:14:36;1.25;;;1.20;;
10082;SDS011;5080;48.528;8.078;2023-06-10T10:17:04;1.52;;;1.42;;
10082;SDS011;5080;48.528;8.078;2023-06-10T10:19:36;1.20;;;1.20;;
10082;SDS011;5080;48.528;8.078;2023-06-10T10:22:10;1.75;;;1.27;;
10082;SDS011;5080;48.528;8.078;2023-06-10T10:24:44;1.23;;;1.23;;
10082;SDS011;5080;48.528;8.078;2023-06-10T10:27:17;1.10;;;1.10;;
10082;SDS011;5080;48.528;8.078;2023-06-10T10:29:47;1.10;;;1.10;;
10082;SDS011;5080;48.528;8.078;2023-06-10T10:32:17;1.10;;;1.10;;
10082;SDS011;5080;48.528;8.078;2023-06-10T10:34:49;1.10;;;1.10;;
10082;SDS011;5080;48.528;8.078;2023-06-10T10:37:19;1.20;;;1.20;;
10082;SDS011;5080;48.528;8.078;2023-06-10T10:39:47;1.20;;;1.20;;
10082;SDS011;5080;48.528;8.078;2023-06-10T10:42:15;0.95;;;0.95;;
10082;SDS011;5080;48.528;8.078;2023-06-10T10:44:42;0.90;;;0.90;;
10082;SDS011;5080;48.528;8.078;2023-06-10T10:47:10;0.90;;;0.90;;
10082;SDS011;5080;48.528;8.078;2023-06-10T10:49:38;1.45;;;0.90;;
10082;SDS011;5080;48.528;8.078;2023-06-10T10:52:11;0.90;;;0.90;;
10082;SDS011;5080;48.528;8.078;2023-06-10T10:54:39;0.80;;;0.80;;
10082;SDS011;5080;48.528;8.078;2023-06-10T10:57:12;1.33;;;1.17;;
10082;SDS011;5080;48.528;8.078;2023-06-10T10:59:43;1.10;;;1.10;;
10082;SDS011;5080;48.528;8.078;2023-06-10T11:02:34;1.20;;;1.20;;
10082;SDS011;5080;48.528;8.078;2023-06-10T11:05:04;1.38;;;1.23;;
10082;SDS011;5080;48.528;8.078;2023-06-10T11:07:32;1.10;;;1.10;;
10082;SDS011;5080;48.528;8.078;2023-06-10T11:10:00;1.10;;;1.10;;
10082;SDS011;5080;48.528;8.078;2023-06-10T11:15:24;2.40;;;1.27;;
10082;SDS011;5080;48.528;8.078;2023-06-10T11:18:11;1.13;;;1.13;;
10082;SDS011;5080;48.528;8.078;2023-06-10T11:23:32;1.00;;;1.00;;
10082;SDS011;5080;48.528;8.078;2023-06-10T11:26:16;1.10;;;1.10;;
10082;SDS011;5080;48.528;8.078;2023-06-10T11:29:02;1.10;;;1.00;;
10082;SDS011;5080;48.528;8.078;2023-06-10T11:31:32;1.08;;;1.08;;
10082;SDS011;5080;48.528;8.078;2023-06-10T11:34:04;0.90;;;0.90;;
10082;SDS011;5080;48.528;8.078;2023-06-10T11:36:32;0.90;;;0.90;;
10082;SDS011;5080;48.528;8.078;2023-06-10T11:39:00;1.00;;;1.00;;
10082;SDS011;5080;48.528;8.078;2023-06-10T11:41:29;0.90;;;0.90;;
10082;SDS011;5080;48.528;8.078;2023-06-10T11:44:00;0.90;;;0.90;;
10082;SDS011;5080;48.528;8.078;2023-06-10T11:46:30;1.20;;;1.10;;
10082;SDS011;5080;48.528;8.078;2023-06-10T11:48:57;0.93;;;0.93;;
10082;SDS011;5080;48.528;8.078;2023-06-10T11:51:25;1.10;;;1.10;;
10082;SDS011;5080;48.528;8.078;2023-06-10T11:53:54;1.00;;;1.00;;
10082;SDS011;5080;48.528;8.078;2023-06-10T11:56:21;1.23;;;1.00;;
10082;SDS011;5080;48.528;8.078;2023-06-10T11:58:51;1.13;;;1.10;;
10082;SDS011;5080;48.528;8.078;2023-06-10T12:01:22;0.80;;;0.80;;
10082;SDS011;5080;48.528;8.078;2023-06-10T12:03:56;0.80;;;0.80;;
10082;SDS011;5080;48.528;8.078;2023-06-10T12:06:24;1.00;;;1.00;;
10082;SDS011;5080;48.528;8.078;2023-06-10T12:08:50;0.88;;;0.88;;
10082;SDS011;5080;48.528;8.078;2023-06-10T12:11:17;0.90;;;0.90;;
10082;SDS011;5080;48.528;8.078;2023-06-10T12:13:45;0.93;;;0.90;;
10082;SDS011;5080;48.528;8.078;2023-06-10T12:16:14;0.80;;;0.80;;
10082;SDS011;5080;48.528;8.078;2023-06-10T12:18:43;0.90;;;0.90;;
10082;SDS011;5080;48.528;8.078;2023-06-10T12:21:17;0.82;;;0.82;;
10082;SDS011;5080;48.528;8.078;2023-06-10T12:24:05;0.80;;;0.80;;
10082;SDS011;5080;48.528;8.078;2023-06-10T12:26:34;0.88;;;0.88;;
10082;SDS011;5080;48.528;8.078;2023-06-10T12:29:16;0.80;;;0.80;;
10082;SDS011;5080;48.528;8.078;2023-06-10T12:31:52;0.90;;;0.90;;
10082;SDS011;5080;48.528;8.078;2023-06-10T12:34:32;0.80;;;0.80;;
10082;SDS011;5080;48.528;8.078;2023-06-10T12:37:00;1.20;;;0.88;;
10082;SDS011;5080;48.528;8.078;2023-06-10T12:39:29;0.80;;;0.80;;
10082;SDS011;5080;48.528;8.078;2023-06-10T12:41:56;0.80;;;0.80;;
10082;SDS011;5080;48.528;8.078;2023-06-10T12:44:33;0.82;;;0.82;;
10082;SDS011;5080;48.528;8.078;2023-06-10T12:47:06;0.90;;;0.90;;
10082;SDS011;5080;48.528;8.078;2023-06-10T12:49:36;0.80;;;0.80;;
10082;SDS011;5080;48.528;8.078;2023-06-10T12:52:03;1.00;;;1.00;;
10082;SDS011;5080;48.528;8.078;2023-06-10T12:54:31;1.25;;;0.90;;
10082;SDS011;5080;48.528;8.078;2023-06-10T12:56:58;0.70;;;0.70;;
10082;SDS011;5080;48.528;8.078;2023-06-10T12:59:25;0.80;;;0.80;;
10082;SDS011;5080;48.528;8.078;2023-06-10T13:01:52;0.80;;;0.80;;
10082;SDS011;5080;48.528;8.078;2023-06-10T13:04:20;0.80;;;0.80;;
10082;SDS011;5080;48.528;8.078;2023-06-10T13:06:48;0.90;;;0.90;;
10082;SDS011;5080;48.528;8.078;2023-06-10T13:09:15;0.80;;;0.80;;
10082;SDS011;5080;48.528;8.078;2023-06-10T13:11:42;0.93;;;0.93;;
10082;SDS011;5080;48.528;8.078;2023-06-10T13:14:10;1.10;;;0.85;;
10082;SDS011;5080;48.528;8.078;2023-06-10T13:16:37;0.88;;;0.88;;
10082;SDS011;5080;48.528;8.078;2023-06-10T13:19:04;1.00;;;1.00;;
10082;SDS011;5080;48.528;8.078;2023-06-10T13:21:32;1.25;;;1.00;;
10082;SDS011;5080;48.528;8.078;2023-06-10T13:24:00;0.80;;;0.80;;
10082;SDS011;5080;48.528;8.078;2023-06-10T13:26:27;0.80;;;0.80;;
10082;SDS011;5080;48.528;8.078;2023-06-10T13:28:54;0.90;;;0.90;;
10082;SDS011;5080;48.528;8.078;2023-06-10T13:31:21;2.25;;;0.90;;
10082;SDS011;5080;48.528;8.078;2023-06-10T13:33:48;0.80;;;0.80;;
10082;SDS011;5080;48.528;8.078;2023-06-10T13:36:14;0.90;;;0.90;;
10082;SDS011;5080;48.528;8.078;2023-06-10T13:38:41;0.90;;;0.90;;
10082;SDS011;5080;48.528;8.078;2023-06-10T13:41:10;0.77;;;0.77;;
10082;SDS011;5080;48.528;8.078;2023-06-10T13:43:37;0.90;;;0.90;;
10082;SDS011;5080;48.528;8.078;2023-06-10T13:46:04;1.00;;;1.00;;
10082;SDS011;5080;48.528;8.078;2023-06-10T13:48:31;0.70;;;0.70;;
10082;SDS011;5080;48.528;8.078;2023-06-10T13:50:58;0.70;;;0.70;;
10082;SDS011;5080;48.528;8.078;2023-06-10T13:53:25;1.13;;;0.90;;
10082;SDS011;5080;48.528;8.078;2023-06-10T13:55:52;1.00;;;1.00;;
10082;SDS011;5080;48.528;8.078;2023-06-10T13:58:21;1.05;;;1.00;;
10082;SDS011;5080;48.528;8.078;2023-06-10T14:00:48;1.00;;;1.00;;
10082;SDS011;5080;48.528;8.078;2023-06-10T14:03:15;0.90;;;0.90;;
10082;SDS011;5080;48.528;8.078;2023-06-10T14:05:42;0.90;;;0.90;;
10082;SDS011;5080;48.528;8.078;2023-06-10T14:08:09;0.90;;;0.90;;
10082;SDS011;5080;48.528;8.078;2023-06-10T14:10:36;0.90;;;0.90;;
10082;SDS011;5080;48.528;8.078;2023-06-10T14:13:03;0.95;;;0.90;;
10082;SDS011;5080;48.528;8.078;2023-06-10T14:15:32;1.00;;;1.00;;
10082;SDS011;5080;48.528;8.078;2023-06-10T14:17:59;0.80;;;0.80;;
10082;SDS011;5080;48.528;8.078;2023-06-10T14:20:26;0.90;;;0.90;;
10082;SDS011;5080;48.528;8.078;2023-06-10T14:22:56;0.80;;;0.80;;
10082;SDS011;5080;48.528;8.078;2023-06-10T14:25:24;0.80;;;0.80;;
10082;SDS011;5080;48.528;8.078;2023-06-10T14:27:51;1.33;;;1.00;;
10082;SDS011;5080;48.528;8.078;2023-06-10T14:30:18;0.90;;;0.90;;
10082;SDS011;5080;48.528;8.078;2023-06-10T14:32:46;0.80;;;0.80;;
10082;SDS011;5080;48.528;8.078;2023-06-10T14:35:13;0.82;;;0.82;;
10082;SDS011;5080;48.528;8.078;2023-06-10T14:37:40;1.00;;;1.00;;
10082;SDS011;5080;48.528;8.078;2023-06-10T14:40:08;0.98;;;0.98;;
10082;SDS011;5080;48.528;8.078;2023-06-10T14:42:35;0.90;;;0.90;;
10082;SDS011;5080;48.528;8.078;2023-06-10T14:45:02;0.82;;;0.82;;
10082;SDS011;5080;48.528;8.078;2023-06-10T14:47:30;1.00;;;1.00;;
10082;SDS011;5080;48.528;8.078;2023-06-10T14:49:59;1.20;;;1.20;;
10082;SDS011;5080;48.528;8.078;2023-06-10T14:52:26;1.00;;;1.00;;
10082;SDS011;5080;48.528;8.078;2023-06-10T14:54:53;1.02;;;1.02;;
10082;SDS011;5080;48.528;8.078;2023-06-10T14:57:19;0.90;;;0.90;;
10082;SDS011;5080;48.528;8.078;2023-06-10T14:59:46;1.00;;;1.00;;
10082;SDS011;5080;48.528;8.078;2023-06-10T15:02:13;1.52;;;1.00;;
10082;SDS011;5080;48.528;8.078;2023-06-10T15:04:40;0.82;;;0.82;;
10082;SDS011;5080;48.528;8.078;2023-06-10T15:07:08;1.42;;;1.30;;
10082;SDS011;5080;48.528;8.078;2023-06-10T15:09:35;1.00;;;1.00;;
10082;SDS011;5080;48.528;8.078;2023-06-10T15:12:02;0.80;;;0.80;;